Bremen — C6JC3 — position and weather

sailwx.info

Track history (hours):
 
Tides and Currents Weather Stations Pressure Air Temp Water Temp Dewpoint Dewpoint Depression Visibility Wind Speed Wind Dir Waves Ship Positions

Bremen

Operator: Hapag-Lloyd Container Line

Last reported at 2019-Jul-20 13:30 UTC. Time now 2019-Jul-20 13:38 UTC.
Position N 77°44' E 010°46'.

Length 111.5 m; beam 17 m; draft 4.8 m.

Type: Ship. MMSI: 308429000.

Date/timePositionNaut miles runAvg speedWind from/ knotsBaromVisibWave heightAir tempDewpointWater temp
2019-Jul-20 13:30N 77°44' E 010°46'814.9
2019-Jul-20 13:00N 77°50' E 011°07'715.0
2019-Jul-20 12:30N 77°56' E 011°29'714.7
2019-Jul-20 12:00N 78°02' E 011°49'714.8
2019-Jul-20 11:30N 78°08' E 012°11'713.7
2019-Jul-20 11:00N 78°14' E 012°16'714.9
2019-Jul-20 10:31N 78°21' E 012°07'612.5
2019-Jul-20 10:00N 78°27' E 011°52'0 0.2
2019-Jul-20 09:30N 78°27' E 011°51'0 0.0
2019-Jul-20 09:00N 78°27' E 011°52'0 0.0
2019-Jul-20 08:30N 78°27' E 011°51'0 0.0
2019-Jul-20 08:00N 78°27' E 011°51'0 0.0
2019-Jul-20 07:30N 78°27' E 011°52'0 0.0
2019-Jul-20 07:00N 78°27' E 011°51'0 0.0
2019-Jul-20 06:30N 78°27' E 011°51'0 0.3
2019-Jul-20 06:00N 78°27' E 011°51'3 5.0
2019-Jul-20 05:30N 78°25' E 012°00'5 9.3
2019-Jul-20 05:00N 78°21' E 012°07'5 9.2
2019-Jul-20 04:30N 78°17' E 012°13'5 9.8
2019-Jul-20 04:00N 78°12' E 012°18'4 7.9
2019-Jul-20 03:30N 78°09' E 012°03'611.3
2019-Jul-20 03:00N 78°12' E 011°38'714.0
2019-Jul-20 02:30N 78°16' E 011°11'713.9
2019-Jul-20 02:00N 78°20' E 010°44'714.0
2019-Jul-20 01:30N 78°27' E 010°30'714.2
2019-Jul-20 00:59N 78°34' E 010°20'714.1
2019-Jul-20 00:28N 78°41' E 010°10'714.0
2019-Jul-19 23:57N 78°48' E 010°05'714.5
2019-Jul-19 23:30N 78°55' E 010°06'612.9
2019-Jul-19 23:00N 78°59' E 010°30'714.5
2019-Jul-19 22:30N 79°02' E 011°05'714.2
2019-Jul-19 22:00N 79°06' E 011°34'714.4
2019-Jul-19 21:30N 79°13' E 011°54'2 0.6
2019-Jul-19 17:51N 79°15' E 011°53'3 9.7
2019-Jul-19 17:30N 79°12' E 011°50'4 8.1
2019-Jul-19 17:00N 79°07' E 011°49'0 0.1
2019-Jul-19 16:30N 79°08' E 011°49'0 0.0
2019-Jul-19 15:57N 79°08' E 011°49'0 0.0
2019-Jul-19 15:30N 79°08' E 011°49'0 0.1
2019-Jul-19 14:57N 79°08' E 011°48'0 0.0
2019-Jul-19 14:30N 79°08' E 011°49'0 0.0
2019-Jul-19 13:21N 79°08' E 011°49'0 0.1
2019-Jul-19 13:00N 79°08' E 011°48'0 0.0
2019-Jul-19 12:30N 79°08' E 011°49'0 0.1
2019-Jul-19 11:59N 79°08' E 011°49'2 5.2
2019-Jul-19 11:30N 79°06' E 011°37'4 8.3
2019-Jul-19 11:00N 79°02' E 011°31'4 7.5
2019-Jul-19 10:30N 78°59' E 011°43'4 7.9
2019-Jul-19 10:00N 78°56' E 011°55'1 1.2
2019-Jul-19 09:29N 78°56' E 011°56'0 0.0
2019-Jul-19 08:59N 78°56' E 011°56'0 0.0
2019-Jul-19 08:29N 78°56' E 011°56'0 0.0
2019-Jul-19 07:59N 78°56' E 011°56'0 0.0
2019-Jul-19 07:29N 78°56' E 011°56'0 0.0
2019-Jul-19 06:59N 78°56' E 011°56'0 0.0
2019-Jul-19 06:29N 78°56' E 011°56'0 0.0
2019-Jul-19 06:00N 78°56' E 011°56'1 2.5
2019-Jul-19 05:30N 78°57' E 011°54'4 8.1
2019-Jul-19 05:00N 78°59' E 011°37'4 8.0
2019-Jul-19 04:30N 79°02' E 011°20'4 8.5
2019-Jul-19 04:00N 79°05' E 011°04'4 7.9
2019-Jul-19 03:30N 79°08' E 010°55'4 8.0
2019-Jul-19 03:00N 79°12' E 010°48'611.8
2019-Jul-19 02:30N 79°17' E 010°36'6 0.2
2019-Jul-17 23:18N 79°21' E 010°11'413.6
2019-Jul-17 23:00N 79°17' E 010°10'713.5
2019-Jul-17 22:30N 79°11' E 010°09'713.7
2019-Jul-17 22:00N 79°04' E 010°12'713.5
2019-Jul-17 21:30N 78°57' E 010°15'3 6.7
2019-Jul-17 21:00N 78°54' E 010°05'713.1
2019-Jul-17 20:30N 78°48' E 010°02'713.1
2019-Jul-17 19:58N 78°41' E 010°10'613.0
2019-Jul-17 19:29N 78°35' E 010°21'713.0
2019-Jul-17 18:58N 78°29' E 010°33'613.1
2019-Jul-17 18:30N 78°23' E 010°43'713.3
2019-Jul-17 18:00N 78°17' E 010°60'713.6
2019-Jul-17 17:30N 78°11' E 011°17'713.6
2019-Jul-17 17:01N 78°06' E 011°32'713.8
2019-Jul-17 16:29N 77°59' E 011°49'815.1
2019-Jul-17 15:59N 77°53' E 012°07'815.3
2019-Jul-17 15:30N 77°46' E 012°25'815.5
2019-Jul-17 15:00N 77°39' E 012°43'815.3
2019-Jul-17 14:29N 77°33' E 013°01'715.0
2019-Jul-17 14:00N 77°26' E 013°17'715.1
2019-Jul-17 13:30N 77°20' E 013°34'814.9
2019-Jul-17 13:00N 77°13' E 013°52'714.8
2019-Jul-17 12:30N 77°07' E 014°07'815.0
2019-Jul-17 12:00N 77°02' E 014°32'815.6
2019-Jul-17 11:30N 76°60' E 015°05'815.2
2019-Jul-17 11:00N 76°59' E 015°39'3 6.2
2019-Jul-17 10:28N 77°01' E 015°51'0 0.1
2019-Jul-17 09:58N 77°01' E 015°51'0 0.0
2019-Jul-17 09:28N 77°01' E 015°51'0 0.2
2019-Jul-17 08:58N 77°01' E 015°51'0 0.1
2019-Jul-17 08:28N 77°01' E 015°51'0 0.1
2019-Jul-17 07:58N 77°01' E 015°51'0 0.1
2019-Jul-17 07:30N 77°01' E 015°51'0 0.1
2019-Jul-17 06:59N 77°01' E 015°51'0 0.0
2019-Jul-17 06:29N 77°01' E 015°51'0 0.1
2019-Jul-17 06:00N 77°01' E 015°51'3 6.3
2019-Jul-17 05:30N 76°59' E 015°40'510.1
2019-Jul-17 05:00N 76°55' E 015°22'510.5
2019-Jul-17 04:31N 76°51' E 015°15'611.6
2019-Jul-17 04:00N 76°45' E 015°19'611.3
2019-Jul-17 03:30N 76°39' E 015°26'511.0
2019-Jul-17 03:01N 76°34' E 015°36'611.0
2019-Jul-17 02:30N 76°29' E 015°46'611.8
2019-Jul-17 02:00N 76°24' E 015°56'9212.4
2019-Jul-16 18:36N 75°00' E 018°27'113.1
2019-Jul-16 18:29N 74°59' E 018°29'612.3
2019-Jul-16 18:00N 74°54' E 018°40'612.1
2019-Jul-16 17:30N 74°48' E 018°48'612.7
2019-Jul-16 17:00N 74°42' E 018°58'612.3
2019-Jul-16 16:30N 74°37' E 019°07'612.3
2019-Jul-16 16:00N 74°31' E 019°17'611.8
2019-Jul-16 15:30N 74°25' E 019°20'612.3
2019-Jul-16 15:00N 74°19' E 019°22'612.5
2019-Jul-16 14:30N 74°13' E 019°25'612.5
2019-Jul-16 14:00N 74°06' E 019°27'612.4
2019-Jul-16 13:30N 74°00' E 019°29'712.5
2019-Jul-16 12:58N 73°54' E 019°32'9814.7
2019-Jul-16 06:20N 72°16' E 020°07'514.8
2019-Jul-16 06:00N 72°11' E 020°09'715.1
2019-Jul-16 05:30N 72°04' E 020°10'815.0
2019-Jul-16 05:00N 71°57' E 020°13'815.0
2019-Jul-16 04:27N 71°48' E 020°17'714.8
2019-Jul-16 04:00N 71°42' E 020°20'714.7
2019-Jul-16 03:30N 71°35' E 020°23'714.8
2019-Jul-16 03:00N 71°27' E 020°25'714.9
2019-Jul-16 02:30N 71°20' E 020°27'815.0
2019-Jul-16 02:00N 71°12' E 020°29'715.2
2019-Jul-16 01:30N 71°05' E 020°32'815.2
2019-Jul-16 01:00N 70°57' E 020°36'815.2
2019-Jul-16 00:30N 70°50' E 020°40'814.9
2019-Jul-16 00:00N 70°42' E 020°40'714.9
2019-Jul-15 23:30N 70°35' E 020°40'815.2
2019-Jul-15 23:00N 70°28' E 020°34'815.4
2019-Jul-15 22:30N 70°20' E 020°28'815.5
2019-Jul-15 22:00N 70°13' E 020°20'815.0
2019-Jul-15 21:30N 70°06' E 020°13'815.3
2019-Jul-15 21:00N 69°59' E 020°03'612.5
2019-Jul-15 20:29N 69°53' E 019°54'714.1
2019-Jul-15 20:00N 69°50' E 019°37'714.4
2019-Jul-15 19:30N 69°47' E 019°17'713.7
2019-Jul-15 19:00N 69°44' E 019°01'612.3
2019-Jul-15 18:30N 69°38' E 018°53'2 3.6
2019-Jul-15 17:59N 69°39' E 018°58'0 0.0
2019-Jul-15 17:29N 69°39' E 018°58'0 0.0
2019-Jul-15 16:59N 69°39' E 018°58'0 0.0
2019-Jul-15 16:29N 69°39' E 018°58'0 0.0
2019-Jul-15 15:59N 69°39' E 018°58'0 0.0
2019-Jul-15 15:29N 69°39' E 018°58'0 0.0
2019-Jul-15 14:59N 69°39' E 018°58'0 0.0
2019-Jul-15 14:29N 69°39' E 018°58'0 0.0
2019-Jul-15 13:59N 69°39' E 018°58'0 0.0
2019-Jul-15 13:29N 69°39' E 018°58'0 0.0
2019-Jul-15 12:59N 69°39' E 018°58'0 0.0
2019-Jul-15 12:29N 69°39' E 018°58'0 0.0
2019-Jul-15 11:59N 69°39' E 018°58'0 0.0
2019-Jul-15 11:29N 69°39' E 018°58'0 0.0
2019-Jul-15 10:59N 69°39' E 018°58'0 0.0
2019-Jul-15 10:29N 69°39' E 018°58'0 0.0
2019-Jul-15 09:59N 69°39' E 018°58'0 0.0
2019-Jul-15 09:29N 69°39' E 018°58'0 0.0
2019-Jul-15 08:59N 69°39' E 018°58'0 0.0
2019-Jul-15 08:29N 69°39' E 018°58'0 0.0
2019-Jul-15 07:59N 69°39' E 018°58'0 0.0
2019-Jul-15 07:29N 69°39' E 018°58'0 0.0
2019-Jul-15 06:59N 69°39' E 018°58'0 0.0
2019-Jul-15 06:29N 69°39' E 018°58'0 0.0
2019-Jul-15 05:59N 69°39' E 018°58'0 0.0
2019-Jul-15 05:29N 69°39' E 018°58'0 0.0
2019-Jul-15 04:59N 69°39' E 018°58'0 0.0
2019-Jul-15 04:29N 69°39' E 018°58'0 1.0
2019-Jul-15 04:00N 69°38' E 018°58'3 6.0
2019-Jul-15 03:30N 69°41' E 018°52'610.8
2019-Jul-15 03:00N 69°45' E 019°03'510.5
2019-Jul-15 02:30N 69°47' E 019°16'611.4
2019-Jul-15 02:00N 69°49' E 019°31'713.8
2019-Jul-15 01:30N 69°52' E 019°49'714.0
2019-Jul-15 01:00N 69°58' E 020°01'611.8
2019-Jul-15 00:30N 70°03' E 020°09'612.8
2019-Jul-15 00:00N 70°09' E 020°16'611.8
2019-Jul-14 23:30N 70°15' E 020°22'612.0
2019-Jul-14 23:00N 70°20' E 020°28'612.1
2019-Jul-14 22:30N 70°26' E 020°33'611.4
2019-Jul-14 22:00N 70°31' E 020°38'611.2
2019-Jul-14 21:30N 70°37' E 020°42'611.5
2019-Jul-14 21:00N 70°43' E 020°40'611.5
2019-Jul-14 20:31N 70°48' E 020°38'611.6
2019-Jul-14 20:00N 70°54' E 020°36'611.6
2019-Jul-14 19:30N 70°60' E 020°34'611.5
2019-Jul-14 19:00N 71°06' E 020°32'611.2
2019-Jul-14 18:30N 71°11' E 020°30'611.5
2019-Jul-14 18:00N 71°17' E 020°28'612.0
2019-Jul-14 17:30N 71°23' E 020°26'612.1
2019-Jul-14 17:00N 71°29' E 020°24'612.5
2019-Jul-14 16:30N 71°35' E 020°22'812.4
2019-Jul-14 15:54N 71°43' E 020°19'512.4
2019-Jul-14 15:30N 71°47' E 020°18'612.3
2019-Jul-14 14:59N 71°54' E 020°16'712.3
2019-Jul-14 14:26N 72°00' E 020°15'1112.2
2019-Jul-14 13:35N 72°11' E 020°12'412.0
2019-Jul-14 13:17N 72°14' E 020°12'10012.3
2019-Jul-14 05:12N 73°53' E 019°32'312.5
2019-Jul-14 05:00N 73°56' E 019°31'612.3
2019-Jul-14 04:30N 74°02' E 019°29'612.6
2019-Jul-14 04:00N 74°08' E 019°26'612.4
2019-Jul-14 03:30N 74°15' E 019°23'713.3
2019-Jul-14 03:00N 74°21' E 019°22'816.9
2019-Jul-14 02:30N 74°29' E 019°20'816.5
2019-Jul-14 02:00N 74°37' E 019°07'815.7
2019-Jul-14 01:30N 74°44' E 018°54'815.2
2019-Jul-14 01:00N 74°51' E 018°42'815.2
2019-Jul-14 00:30N 74°58' E 018°31'9114.2
2019-Jul-13 18:05N 76°22' E 016°00'114.5
2019-Jul-13 18:00N 76°23' E 015°59'714.2
2019-Jul-13 17:30N 76°29' E 015°47'814.8
2019-Jul-13 17:00N 76°36' E 015°33'715.0
2019-Jul-13 16:30N 76°43' E 015°21'714.8
2019-Jul-13 16:00N 76°50' E 015°14'713.5
2019-Jul-13 15:30N 76°56' E 015°27'714.9
2019-Jul-13 15:00N 76°59' E 015°58'5 9.3
2019-Jul-13 14:30N 76°56' E 016°16'1 2.1
2019-Jul-13 14:00N 76°56' E 016°18'0 0.1
2019-Jul-13 13:30N 76°56' E 016°18'0 0.0
2019-Jul-13 13:00N 76°56' E 016°18'0 0.0
2019-Jul-13 12:29N 76°56' E 016°18'0 0.1
2019-Jul-13 12:00N 76°55' E 016°18'0 0.1
2019-Jul-13 11:31N 76°55' E 016°18'0 0.1
2019-Jul-13 11:00N 76°56' E 016°18'5 9.5
2019-Jul-13 10:30N 76°59' E 016°06'4 7.1
2019-Jul-13 10:00N 77°01' E 015°51'0 0.0
2019-Jul-13 09:30N 77°01' E 015°51'0 0.0
2019-Jul-13 09:00N 77°01' E 015°51'0 0.0
2019-Jul-13 08:30N 77°01' E 015°51'0 0.0
2019-Jul-13 08:00N 77°01' E 015°51'0 0.0
2019-Jul-13 07:30N 77°01' E 015°51'0 0.0
2019-Jul-13 07:00N 77°01' E 015°51'0 0.0
2019-Jul-13 06:30N 77°01' E 015°51'0 0.1
2019-Jul-13 06:00N 77°01' E 015°51'3 5.6
2019-Jul-13 05:30N 76°59' E 015°41'4 8.3
2019-Jul-13 05:00N 76°58' E 015°23'5 8.9
2019-Jul-13 04:30N 76°59' E 015°03'4 8.5
2019-Jul-13 04:00N 76°60' E 014°44'4 8.6
2019-Jul-13 03:30N 77°02' E 014°27'4 8.6
2019-Jul-13 03:00N 77°04' E 014°11'4 8.5
2019-Jul-13 02:29N 77°08' E 013°59'4 8.8
2019-Jul-13 02:00N 77°12' E 013°52'5 9.1
2019-Jul-13 01:30N 77°16' E 013°44'4 9.2
2019-Jul-13 01:00N 77°20' E 013°37'5 9.4
2019-Jul-13 00:30N 77°25' E 013°35'5 9.4
2019-Jul-13 00:00N 77°30' E 013°36'4 8.5
2019-Jul-12 23:30N 77°33' E 013°48'4 9.1
2019-Jul-12 23:00N 77°35' E 014°05'4 8.7
2019-Jul-12 22:30N 77°36' E 014°25'4 8.8
2019-Jul-12 22:00N 77°35' E 014°45'4 8.2
2019-Jul-12 21:30N 77°35' E 015°04'1 2.2
2019-Jul-12 20:58N 77°33' E 015°05'0 0.1
2019-Jul-12 20:28N 77°33' E 015°05'0 0.0
2019-Jul-12 19:59N 77°33' E 015°05'0 0.0
2019-Jul-12 19:29N 77°33' E 015°05'0 0.1
2019-Jul-12 18:59N 77°33' E 015°05'0 0.1
2019-Jul-12 18:29N 77°33' E 015°05'0 0.0
2019-Jul-12 17:59N 77°33' E 015°05'0 0.0
2019-Jul-12 17:30N 77°33' E 015°05'2 4.2
2019-Jul-12 17:00N 77°35' E 014°59'4 9.0
2019-Jul-12 16:30N 77°35' E 014°38'612.0
2019-Jul-12 16:00N 77°38' E 014°13'612.2
2019-Jul-12 15:31N 77°41' E 013°48'611.6
2019-Jul-12 15:00N 77°45' E 013°26'612.0
2019-Jul-12 14:30N 77°50' E 013°14'611.9
2019-Jul-12 14:00N 77°56' E 013°04'612.2
2019-Jul-12 13:30N 78°01' E 012°52'612.1
2019-Jul-12 13:00N 78°07' E 012°40'612.1
2019-Jul-12 12:30N 78°12' E 012°29'612.1
2019-Jul-12 12:00N 78°18' E 012°17'612.1
2019-Jul-12 11:30N 78°23' E 012°05'4 7.7
2019-Jul-12 11:00N 78°27' E 011°55'0 0.8
2019-Jul-12 10:25N 78°26' E 011°55'0 0.0
2019-Jul-12 09:58N 78°26' E 011°55'0 0.0
2019-Jul-12 09:28N 78°26' E 011°55'0 0.1
2019-Jul-12 08:58N 78°26' E 011°55'0 0.0
2019-Jul-12 08:28N 78°26' E 011°55'0 0.0
2019-Jul-12 07:58N 78°26' E 011°55'0 0.0
2019-Jul-12 07:28N 78°26' E 011°55'0 0.0
2019-Jul-12 06:57N 78°26' E 011°55'0 0.1
2019-Jul-12 06:30N 78°26' E 011°55'0 0.5
2019-Jul-12 06:00N 78°26' E 011°56'611.2
2019-Jul-12 05:30N 78°21' E 012°06'714.8
2019-Jul-12 05:00N 78°14' E 012°15'510.8
2019-Jul-12 04:30N 78°10' E 011°58'815.2
2019-Jul-12 04:00N 78°15' E 011°32'815.2
2019-Jul-12 03:29N 78°21' E 011°09'714.9
2019-Jul-12 03:00N 78°27' E 010°48'714.6
2019-Jul-12 02:30N 78°34' E 010°34'1514.6
2019-Jul-12 01:27N 78°49' E 010°10'714.9
2019-Jul-12 01:00N 78°55' E 010°06'714.8
2019-Jul-12 00:30N 79°02' E 010°08'814.9
2019-Jul-12 00:00N 79°10' E 010°10'714.7
2019-Jul-11 23:30N 79°17' E 010°14'  
Track history (hours):
 
Tides and Currents Weather Stations Pressure Air Temp Water Temp Dewpoint Dewpoint Depression Visibility Wind Speed Wind Dir Waves Ship Positions

Bremen

Operator: Hapag-Lloyd Container Line

Last reported at 2019-Jul-20 13:30 UTC. Time now 2019-Jul-20 13:38 UTC.
Position N 77°44' E 010°46'.

Length 111.5 m; beam 17 m; draft 4.8 m.

Type: Ship. MMSI: 308429000.

Date/timePositionNaut miles runAvg speedWind from/ knotsBaromVisibWave heightAir tempDewpointWater temp
2019-Jul-20 13:30N 77°44' E 010°46'814.9
2019-Jul-20 13:00N 77°50' E 011°07'715.0
2019-Jul-20 12:30N 77°56' E 011°29'714.7
2019-Jul-20 12:00N 78°02' E 011°49'714.8
2019-Jul-20 11:30N 78°08' E 012°11'713.7
2019-Jul-20 11:00N 78°14' E 012°16'714.9
2019-Jul-20 10:31N 78°21' E 012°07'612.5
2019-Jul-20 10:00N 78°27' E 011°52'0 0.2
2019-Jul-20 09:30N 78°27' E 011°51'0 0.0
2019-Jul-20 09:00N 78°27' E 011°52'0 0.0
2019-Jul-20 08:30N 78°27' E 011°51'0 0.0
2019-Jul-20 08:00N 78°27' E 011°51'0 0.0
2019-Jul-20 07:30N 78°27' E 011°52'0 0.0
2019-Jul-20 07:00N 78°27' E 011°51'0 0.0
2019-Jul-20 06:30N 78°27' E 011°51'0 0.3
2019-Jul-20 06:00N 78°27' E 011°51'3 5.0
2019-Jul-20 05:30N 78°25' E 012°00'5 9.3
2019-Jul-20 05:00N 78°21' E 012°07'5 9.2
2019-Jul-20 04:30N 78°17' E 012°13'5 9.8
2019-Jul-20 04:00N 78°12' E 012°18'4 7.9
2019-Jul-20 03:30N 78°09' E 012°03'611.3
2019-Jul-20 03:00N 78°12' E 011°38'714.0
2019-Jul-20 02:30N 78°16' E 011°11'713.9
2019-Jul-20 02:00N 78°20' E 010°44'714.0
2019-Jul-20 01:30N 78°27' E 010°30'714.2
2019-Jul-20 00:59N 78°34' E 010°20'714.1
2019-Jul-20 00:28N 78°41' E 010°10'714.0
2019-Jul-19 23:57N 78°48' E 010°05'714.5
2019-Jul-19 23:30N 78°55' E 010°06'612.9
2019-Jul-19 23:00N 78°59' E 010°30'714.5
2019-Jul-19 22:30N 79°02' E 011°05'714.2
2019-Jul-19 22:00N 79°06' E 011°34'714.4
2019-Jul-19 21:30N 79°13' E 011°54'2 0.6
2019-Jul-19 17:51N 79°15' E 011°53'3 9.7
2019-Jul-19 17:30N 79°12' E 011°50'4 8.1
2019-Jul-19 17:00N 79°07' E 011°49'0 0.1
2019-Jul-19 16:30N 79°08' E 011°49'0 0.0
2019-Jul-19 15:57N 79°08' E 011°49'0 0.0
2019-Jul-19 15:30N 79°08' E 011°49'0 0.1
2019-Jul-19 14:57N 79°08' E 011°48'0 0.0
2019-Jul-19 14:30N 79°08' E 011°49'0 0.0
2019-Jul-19 13:21N 79°08' E 011°49'0 0.1
2019-Jul-19 13:00N 79°08' E 011°48'0 0.0
2019-Jul-19 12:30N 79°08' E 011°49'0 0.1
2019-Jul-19 11:59N 79°08' E 011°49'2 5.2
2019-Jul-19 11:30N 79°06' E 011°37'4 8.3
2019-Jul-19 11:00N 79°02' E 011°31'4 7.5
2019-Jul-19 10:30N 78°59' E 011°43'4 7.9
2019-Jul-19 10:00N 78°56' E 011°55'1 1.2
2019-Jul-19 09:29N 78°56' E 011°56'0 0.0
2019-Jul-19 08:59N 78°56' E 011°56'0 0.0
2019-Jul-19 08:29N 78°56' E 011°56'0 0.0
2019-Jul-19 07:59N 78°56' E 011°56'0 0.0
2019-Jul-19 07:29N 78°56' E 011°56'0 0.0
2019-Jul-19 06:59N 78°56' E 011°56'0 0.0
2019-Jul-19 06:29N 78°56' E 011°56'0 0.0
2019-Jul-19 06:00N 78°56' E 011°56'1 2.5
2019-Jul-19 05:30N 78°57' E 011°54'4 8.1
2019-Jul-19 05:00N 78°59' E 011°37'4 8.0
2019-Jul-19 04:30N 79°02' E 011°20'4 8.5
2019-Jul-19 04:00N 79°05' E 011°04'4 7.9
2019-Jul-19 03:30N 79°08' E 010°55'4 8.0
2019-Jul-19 03:00N 79°12' E 010°48'611.8
2019-Jul-19 02:30N 79°17' E 010°36'6 0.2
2019-Jul-17 23:18N 79°21' E 010°11'413.6
2019-Jul-17 23:00N 79°17' E 010°10'713.5
2019-Jul-17 22:30N 79°11' E 010°09'713.7
2019-Jul-17 22:00N 79°04' E 010°12'713.5
2019-Jul-17 21:30N 78°57' E 010°15'3 6.7
2019-Jul-17 21:00N 78°54' E 010°05'713.1
2019-Jul-17 20:30N 78°48' E 010°02'713.1
2019-Jul-17 19:58N 78°41' E 010°10'613.0
2019-Jul-17 19:29N 78°35' E 010°21'713.0
2019-Jul-17 18:58N 78°29' E 010°33'613.1
2019-Jul-17 18:30N 78°23' E 010°43'713.3
2019-Jul-17 18:00N 78°17' E 010°60'713.6
2019-Jul-17 17:30N 78°11' E 011°17'713.6
2019-Jul-17 17:01N 78°06' E 011°32'713.8
2019-Jul-17 16:29N 77°59' E 011°49'815.1
2019-Jul-17 15:59N 77°53' E 012°07'815.3
2019-Jul-17 15:30N 77°46' E 012°25'815.5
2019-Jul-17 15:00N 77°39' E 012°43'815.3
2019-Jul-17 14:29N 77°33' E 013°01'715.0
2019-Jul-17 14:00N 77°26' E 013°17'715.1
2019-Jul-17 13:30N 77°20' E 013°34'814.9
2019-Jul-17 13:00N 77°13' E 013°52'714.8
2019-Jul-17 12:30N 77°07' E 014°07'815.0
2019-Jul-17 12:00N 77°02' E 014°32'815.6
2019-Jul-17 11:30N 76°60' E 015°05'815.2
2019-Jul-17 11:00N 76°59' E 015°39'3 6.2
2019-Jul-17 10:28N 77°01' E 015°51'0 0.1
2019-Jul-17 09:58N 77°01' E 015°51'0 0.0
2019-Jul-17 09:28N 77°01' E 015°51'0 0.2
2019-Jul-17 08:58N 77°01' E 015°51'0 0.1
2019-Jul-17 08:28N 77°01' E 015°51'0 0.1
2019-Jul-17 07:58N 77°01' E 015°51'0 0.1
2019-Jul-17 07:30N 77°01' E 015°51'0 0.1
2019-Jul-17 06:59N 77°01' E 015°51'0 0.0
2019-Jul-17 06:29N 77°01' E 015°51'0 0.1
2019-Jul-17 06:00N 77°01' E 015°51'3 6.3
2019-Jul-17 05:30N 76°59' E 015°40'510.1
2019-Jul-17 05:00N 76°55' E 015°22'510.5
2019-Jul-17 04:31N 76°51' E 015°15'611.6
2019-Jul-17 04:00N 76°45' E 015°19'611.3
2019-Jul-17 03:30N 76°39' E 015°26'511.0
2019-Jul-17 03:01N 76°34' E 015°36'611.0
2019-Jul-17 02:30N 76°29' E 015°46'611.8
2019-Jul-17 02:00N 76°24' E 015°56'9212.4
2019-Jul-16 18:36N 75°00' E 018°27'113.1
2019-Jul-16 18:29N 74°59' E 018°29'612.3
2019-Jul-16 18:00N 74°54' E 018°40'612.1
2019-Jul-16 17:30N 74°48' E 018°48'612.7
2019-Jul-16 17:00N 74°42' E 018°58'612.3
2019-Jul-16 16:30N 74°37' E 019°07'612.3
2019-Jul-16 16:00N 74°31' E 019°17'611.8
2019-Jul-16 15:30N 74°25' E 019°20'612.3
2019-Jul-16 15:00N 74°19' E 019°22'612.5
2019-Jul-16 14:30N 74°13' E 019°25'612.5
2019-Jul-16 14:00N 74°06' E 019°27'612.4
2019-Jul-16 13:30N 74°00' E 019°29'712.5
2019-Jul-16 12:58N 73°54' E 019°32'9814.7
2019-Jul-16 06:20N 72°16' E 020°07'514.8
2019-Jul-16 06:00N 72°11' E 020°09'715.1
2019-Jul-16 05:30N 72°04' E 020°10'815.0
2019-Jul-16 05:00N 71°57' E 020°13'815.0
2019-Jul-16 04:27N 71°48' E 020°17'714.8
2019-Jul-16 04:00N 71°42' E 020°20'714.7
2019-Jul-16 03:30N 71°35' E 020°23'714.8
2019-Jul-16 03:00N 71°27' E 020°25'714.9
2019-Jul-16 02:30N 71°20' E 020°27'815.0
2019-Jul-16 02:00N 71°12' E 020°29'715.2
2019-Jul-16 01:30N 71°05' E 020°32'815.2
2019-Jul-16 01:00N 70°57' E 020°36'815.2
2019-Jul-16 00:30N 70°50' E 020°40'814.9
2019-Jul-16 00:00N 70°42' E 020°40'714.9
2019-Jul-15 23:30N 70°35' E 020°40'815.2
2019-Jul-15 23:00N 70°28' E 020°34'815.4
2019-Jul-15 22:30N 70°20' E 020°28'815.5
2019-Jul-15 22:00N 70°13' E 020°20'815.0
2019-Jul-15 21:30N 70°06' E 020°13'815.3
2019-Jul-15 21:00N 69°59' E 020°03'612.5
2019-Jul-15 20:29N 69°53' E 019°54'714.1
2019-Jul-15 20:00N 69°50' E 019°37'714.4
2019-Jul-15 19:30N 69°47' E 019°17'713.7
2019-Jul-15 19:00N 69°44' E 019°01'612.3
2019-Jul-15 18:30N 69°38' E 018°53'2 3.6
2019-Jul-15 17:59N 69°39' E 018°58'0 0.0
2019-Jul-15 17:29N 69°39' E 018°58'0 0.0
2019-Jul-15 16:59N 69°39' E 018°58'0 0.0
2019-Jul-15 16:29N 69°39' E 018°58'0 0.0
2019-Jul-15 15:59N 69°39' E 018°58'0 0.0
2019-Jul-15 15:29N 69°39' E 018°58'0 0.0
2019-Jul-15 14:59N 69°39' E 018°58'0 0.0
2019-Jul-15 14:29N 69°39' E 018°58'0 0.0
2019-Jul-15 13:59N 69°39' E 018°58'0 0.0
2019-Jul-15 13:29N 69°39' E 018°58'0 0.0
2019-Jul-15 12:59N 69°39' E 018°58'0 0.0
2019-Jul-15 12:29N 69°39' E 018°58'0 0.0
2019-Jul-15 11:59N 69°39' E 018°58'0 0.0
2019-Jul-15 11:29N 69°39' E 018°58'0 0.0
2019-Jul-15 10:59N 69°39' E 018°58'0 0.0
2019-Jul-15 10:29N 69°39' E 018°58'0 0.0
2019-Jul-15 09:59N 69°39' E 018°58'0 0.0
2019-Jul-15 09:29N 69°39' E 018°58'0 0.0
2019-Jul-15 08:59N 69°39' E 018°58'0 0.0
2019-Jul-15 08:29N 69°39' E 018°58'0 0.0
2019-Jul-15 07:59N 69°39' E 018°58'0 0.0
2019-Jul-15 07:29N 69°39' E 018°58'0 0.0
2019-Jul-15 06:59N 69°39' E 018°58'0 0.0
2019-Jul-15 06:29N 69°39' E 018°58'0 0.0
2019-Jul-15 05:59N 69°39' E 018°58'0 0.0
2019-Jul-15 05:29N 69°39' E 018°58'0 0.0
2019-Jul-15 04:59N 69°39' E 018°58'0 0.0
2019-Jul-15 04:29N 69°39' E 018°58'0 1.0
2019-Jul-15 04:00N 69°38' E 018°58'3 6.0
2019-Jul-15 03:30N 69°41' E 018°52'610.8
2019-Jul-15 03:00N 69°45' E 019°03'510.5
2019-Jul-15 02:30N 69°47' E 019°16'611.4
2019-Jul-15 02:00N 69°49' E 019°31'713.8
2019-Jul-15 01:30N 69°52' E 019°49'714.0
2019-Jul-15 01:00N 69°58' E 020°01'611.8
2019-Jul-15 00:30N 70°03' E 020°09'612.8
2019-Jul-15 00:00N 70°09' E 020°16'611.8
2019-Jul-14 23:30N 70°15' E 020°22'612.0
2019-Jul-14 23:00N 70°20' E 020°28'612.1
2019-Jul-14 22:30N 70°26' E 020°33'611.4
2019-Jul-14 22:00N 70°31' E 020°38'611.2
2019-Jul-14 21:30N 70°37' E 020°42'611.5
2019-Jul-14 21:00N 70°43' E 020°40'611.5
2019-Jul-14 20:31N 70°48' E 020°38'611.6
2019-Jul-14 20:00N 70°54' E 020°36'611.6
2019-Jul-14 19:30N 70°60' E 020°34'611.5
2019-Jul-14 19:00N 71°06' E 020°32'611.2
2019-Jul-14 18:30N 71°11' E 020°30'611.5
2019-Jul-14 18:00N 71°17' E 020°28'612.0
2019-Jul-14 17:30N 71°23' E 020°26'612.1
2019-Jul-14 17:00N 71°29' E 020°24'612.5
2019-Jul-14 16:30N 71°35' E 020°22'812.4
2019-Jul-14 15:54N 71°43' E 020°19'512.4
2019-Jul-14 15:30N 71°47' E 020°18'612.3
2019-Jul-14 14:59N 71°54' E 020°16'712.3
2019-Jul-14 14:26N 72°00' E 020°15'1112.2
2019-Jul-14 13:35N 72°11' E 020°12'412.0
2019-Jul-14 13:17N 72°14' E 020°12'10012.3
2019-Jul-14 05:12N 73°53' E 019°32'312.5
2019-Jul-14 05:00N 73°56' E 019°31'612.3
2019-Jul-14 04:30N 74°02' E 019°29'612.6
2019-Jul-14 04:00N 74°08' E 019°26'612.4
2019-Jul-14 03:30N 74°15' E 019°23'713.3
2019-Jul-14 03:00N 74°21' E 019°22'816.9
2019-Jul-14 02:30N 74°29' E 019°20'816.5
2019-Jul-14 02:00N 74°37' E 019°07'815.7
2019-Jul-14 01:30N 74°44' E 018°54'815.2
2019-Jul-14 01:00N 74°51' E 018°42'815.2
2019-Jul-14 00:30N 74°58' E 018°31'9114.2
2019-Jul-13 18:05N 76°22' E 016°00'114.5
2019-Jul-13 18:00N 76°23' E 015°59'714.2
2019-Jul-13 17:30N 76°29' E 015°47'814.8
2019-Jul-13 17:00N 76°36' E 015°33'715.0
2019-Jul-13 16:30N 76°43' E 015°21'714.8
2019-Jul-13 16:00N 76°50' E 015°14'713.5
2019-Jul-13 15:30N 76°56' E 015°27'714.9
2019-Jul-13 15:00N 76°59' E 015°58'5 9.3
2019-Jul-13 14:30N 76°56' E 016°16'1 2.1
2019-Jul-13 14:00N 76°56' E 016°18'0 0.1
2019-Jul-13 13:30N 76°56' E 016°18'0 0.0
2019-Jul-13 13:00N 76°56' E 016°18'0 0.0
2019-Jul-13 12:29N 76°56' E 016°18'0 0.1
2019-Jul-13 12:00N 76°55' E 016°18'0 0.1
2019-Jul-13 11:31N 76°55' E 016°18'0 0.1
2019-Jul-13 11:00N 76°56' E 016°18'5 9.5
2019-Jul-13 10:30N 76°59' E 016°06'4 7.1
2019-Jul-13 10:00N 77°01' E 015°51'0 0.0
2019-Jul-13 09:30N 77°01' E 015°51'0 0.0
2019-Jul-13 09:00N 77°01' E 015°51'0 0.0
2019-Jul-13 08:30N 77°01' E 015°51'0 0.0
2019-Jul-13 08:00N 77°01' E 015°51'0 0.0
2019-Jul-13 07:30N 77°01' E 015°51'0 0.0
2019-Jul-13 07:00N 77°01' E 015°51'0 0.0
2019-Jul-13 06:30N 77°01' E 015°51'0 0.1
2019-Jul-13 06:00N 77°01' E 015°51'3 5.6
2019-Jul-13 05:30N 76°59' E 015°41'4 8.3
2019-Jul-13 05:00N 76°58' E 015°23'5 8.9
2019-Jul-13 04:30N 76°59' E 015°03'4 8.5
2019-Jul-13 04:00N 76°60' E 014°44'4 8.6
2019-Jul-13 03:30N 77°02' E 014°27'4 8.6
2019-Jul-13 03:00N 77°04' E 014°11'4 8.5
2019-Jul-13 02:29N 77°08' E 013°59'4 8.8
2019-Jul-13 02:00N 77°12' E 013°52'5 9.1
2019-Jul-13 01:30N 77°16' E 013°44'4 9.2
2019-Jul-13 01:00N 77°20' E 013°37'5 9.4
2019-Jul-13 00:30N 77°25' E 013°35'5 9.4
2019-Jul-13 00:00N 77°30' E 013°36'4 8.5
2019-Jul-12 23:30N 77°33' E 013°48'4 9.1
2019-Jul-12 23:00N 77°35' E 014°05'4 8.7
2019-Jul-12 22:30N 77°36' E 014°25'4 8.8
2019-Jul-12 22:00N 77°35' E 014°45'4 8.2
2019-Jul-12 21:30N 77°35' E 015°04'1 2.2
2019-Jul-12 20:58N 77°33' E 015°05'0 0.1
2019-Jul-12 20:28N 77°33' E 015°05'0 0.0
2019-Jul-12 19:59N 77°33' E 015°05'0 0.0
2019-Jul-12 19:29N 77°33' E 015°05'0 0.1
2019-Jul-12 18:59N 77°33' E 015°05'0 0.1
2019-Jul-12 18:29N 77°33' E 015°05'0 0.0
2019-Jul-12 17:59N 77°33' E 015°05'0 0.0
2019-Jul-12 17:30N 77°33' E 015°05'2 4.2
2019-Jul-12 17:00N 77°35' E 014°59'4 9.0
2019-Jul-12 16:30N 77°35' E 014°38'612.0
2019-Jul-12 16:00N 77°38' E 014°13'612.2
2019-Jul-12 15:31N 77°41' E 013°48'611.6
2019-Jul-12 15:00N 77°45' E 013°26'612.0
2019-Jul-12 14:30N 77°50' E 013°14'611.9
2019-Jul-12 14:00N 77°56' E 013°04'612.2
2019-Jul-12 13:30N 78°01' E 012°52'612.1
2019-Jul-12 13:00N 78°07' E 012°40'612.1
2019-Jul-12 12:30N 78°12' E 012°29'612.1
2019-Jul-12 12:00N 78°18' E 012°17'612.1
2019-Jul-12 11:30N 78°23' E 012°05'4 7.7
2019-Jul-12 11:00N 78°27' E 011°55'0 0.8
2019-Jul-12 10:25N 78°26' E 011°55'0 0.0
2019-Jul-12 09:58N 78°26' E 011°55'0 0.0
2019-Jul-12 09:28N 78°26' E 011°55'0 0.1
2019-Jul-12 08:58N 78°26' E 011°55'0 0.0
2019-Jul-12 08:28N 78°26' E 011°55'0 0.0
2019-Jul-12 07:58N 78°26' E 011°55'0 0.0
2019-Jul-12 07:28N 78°26' E 011°55'0 0.0
2019-Jul-12 06:57N 78°26' E 011°55'0 0.1
2019-Jul-12 06:30N 78°26' E 011°55'0 0.5
2019-Jul-12 06:00N 78°26' E 011°56'611.2
2019-Jul-12 05:30N 78°21' E 012°06'714.8
2019-Jul-12 05:00N 78°14' E 012°15'510.8
2019-Jul-12 04:30N 78°10' E 011°58'815.2
2019-Jul-12 04:00N 78°15' E 011°32'815.2
2019-Jul-12 03:29N 78°21' E 011°09'714.9
2019-Jul-12 03:00N 78°27' E 010°48'714.6
2019-Jul-12 02:30N 78°34' E 010°34'1514.6
2019-Jul-12 01:27N 78°49' E 010°10'714.9
2019-Jul-12 01:00N 78°55' E 010°06'714.8
2019-Jul-12 00:30N 79°02' E 010°08'814.9
2019-Jul-12 00:00N 79°10' E 010°10'714.7
2019-Jul-11 23:30N 79°17' E 010°14'  

Dump ship's entire track history